sensor_id;sensor_type;location;lat;lon;timestamp;temperature;humidity
33011;DHT22;19370;48.562;9.196;2022-08-19T00:02:01;19.70;99.90
33011;DHT22;19370;48.562;9.196;2022-08-19T00:04:47;19.60;99.90
33011;DHT22;19370;48.562;9.196;2022-08-19T00:07:38;19.60;99.90
33011;DHT22;19370;48.562;9.196;2022-08-19T00:10:24;19.70;99.90
33011;DHT22;19370;48.562;9.196;2022-08-19T00:13:10;19.70;99.90
33011;DHT22;19370;48.562;9.196;2022-08-19T00:15:56;19.60;99.90
33011;DHT22;19370;48.562;9.196;2022-08-19T00:18:44;19.60;99.90
33011;DHT22;19370;48.562;9.196;2022-08-19T00:21:30;19.60;99.90
33011;DHT22;19370;48.562;9.196;2022-08-19T00:24:16;19.60;99.90
33011;DHT22;19370;48.562;9.196;2022-08-19T00:27:02;19.50;99.90
33011;DHT22;19370;48.562;9.196;2022-08-19T00:29:48;19.50;99.90
33011;DHT22;19370;48.562;9.196;2022-08-19T00:32:34;19.50;99.90
33011;DHT22;19370;48.562;9.196;2022-08-19T00:35:21;19.50;99.90
33011;DHT22;19370;48.562;9.196;2022-08-19T00:38:07;19.40;99.90
33011;DHT22;19370;48.562;9.196;2022-08-19T00:40:53;19.40;99.90
33011;DHT22;19370;48.562;9.196;2022-08-19T00:43:57;19.40;99.90
33011;DHT22;19370;48.562;9.196;2022-08-19T00:46:46;19.40;99.90
33011;DHT22;19370;48.562;9.196;2022-08-19T00:49:39;19.30;99.90
33011;DHT22;19370;48.562;9.196;2022-08-19T00:52:30;19.30;99.90
33011;DHT22;19370;48.562;9.196;2022-08-19T00:55:24;19.20;99.90
33011;DHT22;19370;48.562;9.196;2022-08-19T00:58:14;19.10;99.90
33011;DHT22;19370;48.562;9.196;2022-08-19T01:01:02;19.10;99.90
33011;DHT22;19370;48.562;9.196;2022-08-19T01:03:49;19.10;99.90
33011;DHT22;19370;48.562;9.196;2022-08-19T01:06:39;19.10;99.90
33011;DHT22;19370;48.562;9.196;2022-08-19T01:09:26;19.10;99.90
33011;DHT22;19370;48.562;9.196;2022-08-19T01:12:13;19.20;99.90
33011;DHT22;19370;48.562;9.196;2022-08-19T01:14:59;19.20;99.90
33011;DHT22;19370;48.562;9.196;2022-08-19T01:17:45;19.10;99.90
33011;DHT22;19370;48.562;9.196;2022-08-19T01:20:32;19.10;99.90
33011;DHT22;19370;48.562;9.196;2022-08-19T01:23:20;19.10;99.90
33011;DHT22;19370;48.562;9.196;2022-08-19T01:26:06;19.10;99.90
33011;DHT22;19370;48.562;9.196;2022-08-19T01:28:55;19.10;99.90
33011;DHT22;19370;48.562;9.196;2022-08-19T01:31:41;19.20;99.90
33011;DHT22;19370;48.562;9.196;2022-08-19T01:34:27;19.20;99.90
33011;DHT22;19370;48.562;9.196;2022-08-19T01:37:14;19.20;99.90
33011;DHT22;19370;48.562;9.196;2022-08-19T01:40:00;19.10;99.90
33011;DHT22;19370;48.562;9.196;2022-08-19T01:42:48;19.10;99.90
33011;DHT22;19370;48.562;9.196;2022-08-19T01:45:35;19.00;99.90
33011;DHT22;19370;48.562;9.196;2022-08-19T01:48:21;19.00;99.90
33011;DHT22;19370;48.562;9.196;2022-08-19T01:51:09;19.00;99.90
33011;DHT22;19370;48.562;9.196;2022-08-19T01:53:56;19.00;99.90
33011;DHT22;19370;48.562;9.196;2022-08-19T01:56:42;19.00;99.90
33011;DHT22;19370;48.562;9.196;2022-08-19T01:59:29;19.00;99.90
33011;DHT22;19370;48.562;9.196;2022-08-19T02:02:16;18.90;99.90
33011;DHT22;19370;48.562;9.196;2022-08-19T02:05:02;18.90;99.90
33011;DHT22;19370;48.562;9.196;2022-08-19T02:07:49;18.90;99.90
33011;DHT22;19370;48.562;9.196;2022-08-19T02:10:39;18.90;99.90
33011;DHT22;19370;48.562;9.196;2022-08-19T02:13:29;18.90;99.90
33011;DHT22;19370;48.562;9.196;2022-08-19T02:16:17;18.80;99.90
33011;DHT22;19370;48.562;9.196;2022-08-19T02:19:04;18.80;99.90
33011;DHT22;19370;48.562;9.196;2022-08-19T02:21:50;18.80;99.90
33011;DHT22;19370;48.562;9.196;2022-08-19T02:24:36;18.80;99.90
33011;DHT22;19370;48.562;9.196;2022-08-19T02:27:22;18.80;99.90
33011;DHT22;19370;48.562;9.196;2022-08-19T02:30:12;18.90;99.90
33011;DHT22;19370;48.562;9.196;2022-08-19T02:32:58;18.90;99.90
33011;DHT22;19370;48.562;9.196;2022-08-19T02:35:46;18.90;99.90
33011;DHT22;19370;48.562;9.196;2022-08-19T02:38:32;18.80;99.90
33011;DHT22;19370;48.562;9.196;2022-08-19T02:41:25;18.80;99.90
33011;DHT22;19370;48.562;9.196;2022-08-19T02:44:11;18.80;99.90
33011;DHT22;19370;48.562;9.196;2022-08-19T02:46:58;18.80;99.90
33011;DHT22;19370;48.562;9.196;2022-08-19T02:49:45;18.70;99.90
33011;DHT22;19370;48.562;9.196;2022-08-19T02:52:32;18.80;99.90
33011;DHT22;19370;48.562;9.196;2022-08-19T02:55:19;18.70;99.90
33011;DHT22;19370;48.562;9.196;2022-08-19T02:58:06;18.60;99.90
33011;DHT22;19370;48.562;9.196;2022-08-19T03:00:54;18.60;99.90
33011;DHT22;19370;48.562;9.196;2022-08-19T03:03:40;18.60;99.90
33011;DHT22;19370;48.562;9.196;2022-08-19T03:06:27;18.50;99.90
33011;DHT22;19370;48.562;9.196;2022-08-19T03:09:14;18.50;99.90
33011;DHT22;19370;48.562;9.196;2022-08-19T03:12:00;18.60;99.90
33011;DHT22;19370;48.562;9.196;2022-08-19T03:14:46;18.50;99.90
33011;DHT22;19370;48.562;9.196;2022-08-19T03:17:32;18.50;99.90
33011;DHT22;19370;48.562;9.196;2022-08-19T03:20:18;18.60;99.90
33011;DHT22;19370;48.562;9.196;2022-08-19T03:23:04;18.60;99.90
33011;DHT22;19370;48.562;9.196;2022-08-19T03:25:52;18.70;99.90
33011;DHT22;19370;48.562;9.196;2022-08-19T03:28:39;18.70;99.90
33011;DHT22;19370;48.562;9.196;2022-08-19T03:31:26;18.70;99.90
33011;DHT22;19370;48.562;9.196;2022-08-19T03:34:15;18.60;99.90
33011;DHT22;19370;48.562;9.196;2022-08-19T03:37:06;18.60;99.90
33011;DHT22;19370;48.562;9.196;2022-08-19T03:39:52;18.60;99.90
33011;DHT22;19370;48.562;9.196;2022-08-19T03:42:38;18.60;99.90
33011;DHT22;19370;48.562;9.196;2022-08-19T03:45:28;18.50;99.90
33011;DHT22;19370;48.562;9.196;2022-08-19T03:48:14;18.50;99.90
33011;DHT22;19370;48.562;9.196;2022-08-19T03:51:02;18.60;99.90
33011;DHT22;19370;48.562;9.196;2022-08-19T03:53:49;18.50;99.90
33011;DHT22;19370;48.562;9.196;2022-08-19T03:56:36;18.50;99.90
33011;DHT22;19370;48.562;9.196;2022-08-19T03:59:28;18.50;99.90
33011;DHT22;19370;48.562;9.196;2022-08-19T04:02:14;18.50;99.90
33011;DHT22;19370;48.562;9.196;2022-08-19T04:05:00;18.60;99.90
33011;DHT22;19370;48.562;9.196;2022-08-19T04:07:46;18.50;99.90
33011;DHT22;19370;48.562;9.196;2022-08-19T04:10:36;18.50;99.90
33011;DHT22;19370;48.562;9.196;2022-08-19T04:13:23;18.50;99.90
33011;DHT22;19370;48.562;9.196;2022-08-19T04:16:10;18.50;99.90
33011;DHT22;19370;48.562;9.196;2022-08-19T04:18:59;18.50;99.90
33011;DHT22;19370;48.562;9.196;2022-08-19T04:21:49;18.50;99.90
33011;DHT22;19370;48.562;9.196;2022-08-19T04:24:35;18.50;99.90
33011;DHT22;19370;48.562;9.196;2022-08-19T04:27:21;18.50;99.90
33011;DHT22;19370;48.562;9.196;2022-08-19T04:30:08;18.50;99.90
33011;DHT22;19370;48.562;9.196;2022-08-19T04:32:54;18.50;99.90
33011;DHT22;19370;48.562;9.196;2022-08-19T04:35:42;18.50;99.90
33011;DHT22;19370;48.562;9.196;2022-08-19T04:38:28;18.50;99.90
33011;DHT22;19370;48.562;9.196;2022-08-19T04:41:15;18.40;99.90
33011;DHT22;19370;48.562;9.196;2022-08-19T04:44:20;18.40;99.90
33011;DHT22;19370;48.562;9.196;2022-08-19T04:47:06;18.50;99.90
33011;DHT22;19370;48.562;9.196;2022-08-19T04:49:52;18.50;99.90
33011;DHT22;19370;48.562;9.196;2022-08-19T04:52:39;18.40;99.90
33011;DHT22;19370;48.562;9.196;2022-08-19T04:55:28;18.50;99.90
33011;DHT22;19370;48.562;9.196;2022-08-19T04:58:14;18.50;99.90
33011;DHT22;19370;48.562;9.196;2022-08-19T05:01:02;18.50;99.90
33011;DHT22;19370;48.562;9.196;2022-08-19T05:03:49;18.50;99.90
33011;DHT22;19370;48.562;9.196;2022-08-19T05:06:37;18.50;99.90
33011;DHT22;19370;48.562;9.196;2022-08-19T05:09:23;18.60;99.90
33011;DHT22;19370;48.562;9.196;2022-08-19T05:12:09;18.50;99.90
33011;DHT22;19370;48.562;9.196;2022-08-19T05:14:55;18.60;99.90
33011;DHT22;19370;48.562;9.196;2022-08-19T05:17:42;18.60;99.90
33011;DHT22;19370;48.562;9.196;2022-08-19T05:20:48;18.50;99.90
33011;DHT22;19370;48.562;9.196;2022-08-19T05:23:53;18.50;99.90
33011;DHT22;19370;48.562;9.196;2022-08-19T05:26:41;18.50;99.90
33011;DHT22;19370;48.562;9.196;2022-08-19T05:29:28;18.60;99.90
33011;DHT22;19370;48.562;9.196;2022-08-19T05:32:14;18.60;99.90
33011;DHT22;19370;48.562;9.196;2022-08-19T05:35:00;18.60;99.90
33011;DHT22;19370;48.562;9.196;2022-08-19T05:37:46;18.50;99.90
33011;DHT22;19370;48.562;9.196;2022-08-19T05:40:34;18.50;99.90
33011;DHT22;19370;48.562;9.196;2022-08-19T05:43:21;18.50;99.90
33011;DHT22;19370;48.562;9.196;2022-08-19T05:46:08;18.60;99.90
33011;DHT22;19370;48.562;9.196;2022-08-19T05:49:01;18.60;99.90
33011;DHT22;19370;48.562;9.196;2022-08-19T05:51:47;18.60;99.90
33011;DHT22;19370;48.562;9.196;2022-08-19T05:54:34;18.60;99.90
33011;DHT22;19370;48.562;9.196;2022-08-19T05:57:21;18.70;99.90
33011;DHT22;19370;48.562;9.196;2022-08-19T06:00:08;18.70;99.90
33011;DHT22;19370;48.562;9.196;2022-08-19T06:02:56;18.70;99.90
33011;DHT22;19370;48.562;9.196;2022-08-19T06:05:45;18.70;99.90
33011;DHT22;19370;48.562;9.196;2022-08-19T06:08:31;18.80;99.90
33011;DHT22;19370;48.562;9.196;2022-08-19T06:14:23;18.70;99.90
33011;DHT22;19370;48.562;9.196;2022-08-19T06:17:09;18.80;99.90
33011;DHT22;19370;48.562;9.196;2022-08-19T06:19:57;18.70;99.90
33011;DHT22;19370;48.562;9.196;2022-08-19T06:22:46;18.80;99.90
33011;DHT22;19370;48.562;9.196;2022-08-19T06:25:35;18.70;99.90
33011;DHT22;19370;48.562;9.196;2022-08-19T06:28:21;18.70;99.90
33011;DHT22;19370;48.562;9.196;2022-08-19T06:31:09;18.80;99.90
33011;DHT22;19370;48.562;9.196;2022-08-19T06:33:55;18.80;99.90
33011;DHT22;19370;48.562;9.196;2022-08-19T06:36:44;18.80;99.90
33011;DHT22;19370;48.562;9.196;2022-08-19T06:39:34;18.80;99.90
33011;DHT22;19370;48.562;9.196;2022-08-19T06:42:20;18.80;99.90
33011;DHT22;19370;48.562;9.196;2022-08-19T06:45:07;18.80;99.90
33011;DHT22;19370;48.562;9.196;2022-08-19T06:47:54;18.80;99.90
33011;DHT22;19370;48.562;9.196;2022-08-19T06:50:41;18.80;99.90
33011;DHT22;19370;48.562;9.196;2022-08-19T06:53:27;18.80;99.90
33011;DHT22;19370;48.562;9.196;2022-08-19T06:56:17;18.80;99.90
33011;DHT22;19370;48.562;9.196;2022-08-19T06:59:08;18.80;99.90
33011;DHT22;19370;48.562;9.196;2022-08-19T07:01:56;18.80;99.90
33011;DHT22;19370;48.562;9.196;2022-08-19T07:04:42;18.80;99.90
33011;DHT22;19370;48.562;9.196;2022-08-19T07:07:28;18.80;99.90
33011;DHT22;19370;48.562;9.196;2022-08-19T07:10:14;18.80;99.90
33011;DHT22;19370;48.562;9.196;2022-08-19T07:13:00;18.80;99.90
33011;DHT22;19370;48.562;9.196;2022-08-19T07:15:46;18.70;99.90
33011;DHT22;19370;48.562;9.196;2022-08-19T07:18:32;18.80;99.90
33011;DHT22;19370;48.562;9.196;2022-08-19T07:21:24;18.80;99.90
33011;DHT22;19370;48.562;9.196;2022-08-19T07:24:13;18.70;99.90
33011;DHT22;19370;48.562;9.196;2022-08-19T07:27:02;18.70;99.90
33011;DHT22;19370;48.562;9.196;2022-08-19T07:29:49;18.80;99.90
33011;DHT22;19370;48.562;9.196;2022-08-19T07:32:35;18.80;99.90
33011;DHT22;19370;48.562;9.196;2022-08-19T07:35:21;18.70;99.90
33011;DHT22;19370;48.562;9.196;2022-08-19T07:38:07;18.70;99.90
33011;DHT22;19370;48.562;9.196;2022-08-19T07:40:53;18.70;99.90
33011;DHT22;19370;48.562;9.196;2022-08-19T07:43:40;18.70;99.90
33011;DHT22;19370;48.562;9.196;2022-08-19T07:46:26;18.70;99.90
33011;DHT22;19370;48.562;9.196;2022-08-19T07:49:16;18.80;99.90
33011;DHT22;19370;48.562;9.196;2022-08-19T07:52:08;18.80;99.90
33011;DHT22;19370;48.562;9.196;2022-08-19T07:54:55;18.80;99.90
33011;DHT22;19370;48.562;9.196;2022-08-19T07:57:41;18.70;99.90
33011;DHT22;19370;48.562;9.196;2022-08-19T08:00:26;18.80;99.90
33011;DHT22;19370;48.562;9.196;2022-08-19T08:03:14;18.70;99.90
33011;DHT22;19370;48.562;9.196;2022-08-19T08:06:00;18.70;99.90
33011;DHT22;19370;48.562;9.196;2022-08-19T08:09:05;18.70;99.90
33011;DHT22;19370;48.562;9.196;2022-08-19T08:12:05;18.70;99.90
33011;DHT22;19370;48.562;9.196;2022-08-19T08:14:55;18.70;99.90
33011;DHT22;19370;48.562;9.196;2022-08-19T08:17:42;18.70;99.90
33011;DHT22;19370;48.562;9.196;2022-08-19T08:20:28;18.70;99.90
33011;DHT22;19370;48.562;9.196;2022-08-19T08:23:14;18.70;99.90
33011;DHT22;19370;48.562;9.196;2022-08-19T08:26:12;18.60;99.90
33011;DHT22;19370;48.562;9.196;2022-08-19T08:29:00;18.60;99.90
33011;DHT22;19370;48.562;9.196;2022-08-19T08:31:46;18.60;99.90
33011;DHT22;19370;48.562;9.196;2022-08-19T08:34:32;18.60;99.90
33011;DHT22;19370;48.562;9.196;2022-08-19T08:37:18;18.60;99.90
33011;DHT22;19370;48.562;9.196;2022-08-19T08:40:16;18.60;99.90
33011;DHT22;19370;48.562;9.196;2022-08-19T08:43:07;18.60;99.90
33011;DHT22;19370;48.562;9.196;2022-08-19T08:46:29;18.60;99.90
33011;DHT22;19370;48.562;9.196;2022-08-19T08:49:29;18.60;99.90
33011;DHT22;19370;48.562;9.196;2022-08-19T08:52:27;18.60;99.90
33011;DHT22;19370;48.562;9.196;2022-08-19T08:55:25;18.60;99.90
33011;DHT22;19370;48.562;9.196;2022-08-19T08:58:17;18.60;99.90
33011;DHT22;19370;48.562;9.196;2022-08-19T09:01:06;18.60;99.90
33011;DHT22;19370;48.562;9.196;2022-08-19T09:03:52;18.70;99.90
33011;DHT22;19370;48.562;9.196;2022-08-19T09:07:10;18.60;99.90
33011;DHT22;19370;48.562;9.196;2022-08-19T09:10:23;18.60;99.90
33011;DHT22;19370;48.562;9.196;2022-08-19T09:13:58;18.70;99.90
33011;DHT22;19370;48.562;9.196;2022-08-19T09:16:47;18.70;99.90
33011;DHT22;19370;48.562;9.196;2022-08-19T09:22:36;18.60;99.90
33011;DHT22;19370;48.562;9.196;2022-08-19T09:25:23;18.60;99.90
33011;DHT22;19370;48.562;9.196;2022-08-19T09:28:09;18.60;99.90
33011;DHT22;19370;48.562;9.196;2022-08-19T09:30:54;18.60;99.90
33011;DHT22;19370;48.562;9.196;2022-08-19T09:33:40;18.60;99.90
33011;DHT22;19370;48.562;9.196;2022-08-19T09:36:29;18.70;99.90
33011;DHT22;19370;48.562;9.196;2022-08-19T09:39:18;18.70;99.90
33011;DHT22;19370;48.562;9.196;2022-08-19T09:42:04;18.60;99.90
33011;DHT22;19370;48.562;9.196;2022-08-19T09:44:55;18.60;99.90
33011;DHT22;19370;48.562;9.196;2022-08-19T09:47:41;18.60;99.90
33011;DHT22;19370;48.562;9.196;2022-08-19T09:50:27;18.60;99.90
33011;DHT22;19370;48.562;9.196;2022-08-19T09:53:13;18.70;99.90
33011;DHT22;19370;48.562;9.196;2022-08-19T09:55:59;18.70;99.90
33011;DHT22;19370;48.562;9.196;2022-08-19T09:58:46;18.60;99.90
33011;DHT22;19370;48.562;9.196;2022-08-19T10:01:32;18.70;99.90
33011;DHT22;19370;48.562;9.196;2022-08-19T10:04:19;18.70;99.90
33011;DHT22;19370;48.562;9.196;2022-08-19T10:07:06;18.70;99.90
33011;DHT22;19370;48.562;9.196;2022-08-19T10:09:52;18.70;99.90
33011;DHT22;19370;48.562;9.196;2022-08-19T10:12:38;18.70;99.90
33011;DHT22;19370;48.562;9.196;2022-08-19T10:15:25;18.60;99.90
33011;DHT22;19370;48.562;9.196;2022-08-19T10:18:11;18.60;99.90
33011;DHT22;19370;48.562;9.196;2022-08-19T10:21:09;18.60;99.90
33011;DHT22;19370;48.562;9.196;2022-08-19T10:23:58;18.60;99.90
33011;DHT22;19370;48.562;9.196;2022-08-19T10:26:44;18.60;99.90
33011;DHT22;19370;48.562;9.196;2022-08-19T10:29:33;18.60;99.90
33011;DHT22;19370;48.562;9.196;2022-08-19T10:32:20;18.60;99.90
33011;DHT22;19370;48.562;9.196;2022-08-19T10:35:07;18.60;99.90
33011;DHT22;19370;48.562;9.196;2022-08-19T10:37:54;18.60;99.90
33011;DHT22;19370;48.562;9.196;2022-08-19T10:40:40;18.60;99.90
33011;DHT22;19370;48.562;9.196;2022-08-19T10:43:26;18.50;99.90
33011;DHT22;19370;48.562;9.196;2022-08-19T10:46:14;18.60;99.90
33011;DHT22;19370;48.562;9.196;2022-08-19T10:49:02;18.50;99.90
33011;DHT22;19370;48.562;9.196;2022-08-19T10:51:49;18.50;99.90
33011;DHT22;19370;48.562;9.196;2022-08-19T10:54:53;18.50;99.90
33011;DHT22;19370;48.562;9.196;2022-08-19T10:57:58;18.50;99.90
33011;DHT22;19370;48.562;9.196;2022-08-19T11:00:55;18.60;99.90
33011;DHT22;19370;48.562;9.196;2022-08-19T11:03:41;18.50;99.90
33011;DHT22;19370;48.562;9.196;2022-08-19T11:06:27;18.30;99.90
33011;DHT22;19370;48.562;9.196;2022-08-19T11:09:15;18.20;99.90
33011;DHT22;19370;48.562;9.196;2022-08-19T11:12:05;18.20;99.90
33011;DHT22;19370;48.562;9.196;2022-08-19T11:14:51;18.20;99.90
33011;DHT22;19370;48.562;9.196;2022-08-19T11:17:38;18.30;99.90
33011;DHT22;19370;48.562;9.196;2022-08-19T11:20:29;18.40;99.90
33011;DHT22;19370;48.562;9.196;2022-08-19T11:23:16;18.30;99.90
33011;DHT22;19370;48.562;9.196;2022-08-19T11:26:02;18.30;99.90
33011;DHT22;19370;48.562;9.196;2022-08-19T11:28:48;18.30;99.90
33011;DHT22;19370;48.562;9.196;2022-08-19T11:31:38;18.30;99.90
33011;DHT22;19370;48.562;9.196;2022-08-19T11:34:26;18.20;99.90
33011;DHT22;19370;48.562;9.196;2022-08-19T11:37:14;18.20;99.90
33011;DHT22;19370;48.562;9.196;2022-08-19T11:40:00;18.30;99.90
33011;DHT22;19370;48.562;9.196;2022-08-19T11:42:46;18.30;99.90
33011;DHT22;19370;48.562;9.196;2022-08-19T11:45:42;18.20;99.90
33011;DHT22;19370;48.562;9.196;2022-08-19T11:48:28;18.30;99.90
33011;DHT22;19370;48.562;9.196;2022-08-19T11:51:21;18.30;99.90
33011;DHT22;19370;48.562;9.196;2022-08-19T11:54:07;18.30;99.90
33011;DHT22;19370;48.562;9.196;2022-08-19T11:56:53;18.20;99.90
33011;DHT22;19370;48.562;9.196;2022-08-19T11:59:39;18.20;99.90
33011;DHT22;19370;48.562;9.196;2022-08-19T12:02:25;18.20;99.90
33011;DHT22;19370;48.562;9.196;2022-08-19T12:05:11;18.20;99.90
33011;DHT22;19370;48.562;9.196;2022-08-19T12:07:57;18.30;99.90
33011;DHT22;19370;48.562;9.196;2022-08-19T12:10:44;18.40;99.90
33011;DHT22;19370;48.562;9.196;2022-08-19T12:13:31;18.30;99.90
33011;DHT22;19370;48.562;9.196;2022-08-19T12:16:21;18.30;99.90
33011;DHT22;19370;48.562;9.196;2022-08-19T12:19:09;18.30;99.90
33011;DHT22;19370;48.562;9.196;2022-08-19T12:21:59;18.30;99.90
33011;DHT22;19370;48.562;9.196;2022-08-19T12:24:47;18.40;99.90
33011;DHT22;19370;48.562;9.196;2022-08-19T12:27:37;18.40;99.90
33011;DHT22;19370;48.562;9.196;2022-08-19T12:30:24;18.40;99.90
33011;DHT22;19370;48.562;9.196;2022-08-19T12:33:13;18.50;99.90
33011;DHT22;19370;48.562;9.196;2022-08-19T12:36:02;18.50;99.90
33011;DHT22;19370;48.562;9.196;2022-08-19T12:38:50;18.60;99.90
33011;DHT22;19370;48.562;9.196;2022-08-19T12:41:37;18.60;99.90
33011;DHT22;19370;48.562;9.196;2022-08-19T12:44:23;18.60;99.90
33011;DHT22;19370;48.562;9.196;2022-08-19T12:47:11;18.60;99.90
33011;DHT22;19370;48.562;9.196;2022-08-19T12:49:57;18.60;99.90
33011;DHT22;19370;48.562;9.196;2022-08-19T12:52:43;18.60;99.90
33011;DHT22;19370;48.562;9.196;2022-08-19T12:55:30;18.70;99.90
33011;DHT22;19370;48.562;9.196;2022-08-19T12:58:16;18.70;99.90
33011;DHT22;19370;48.562;9.196;2022-08-19T13:01:16;18.70;99.90
33011;DHT22;19370;48.562;9.196;2022-08-19T13:04:05;18.70;99.90
33011;DHT22;19370;48.562;9.196;2022-08-19T13:06:51;18.70;99.90
33011;DHT22;19370;48.562;9.196;2022-08-19T13:09:37;18.70;99.90
33011;DHT22;19370;48.562;9.196;2022-08-19T13:12:25;18.80;99.90
33011;DHT22;19370;48.562;9.196;2022-08-19T13:15:12;18.80;99.90
33011;DHT22;19370;48.562;9.196;2022-08-19T13:17:59;18.80;99.90
33011;DHT22;19370;48.562;9.196;2022-08-19T13:20:45;18.80;99.90
33011;DHT22;19370;48.562;9.196;2022-08-19T13:23:31;18.70;99.90
33011;DHT22;19370;48.562;9.196;2022-08-19T13:26:18;18.70;99.90
33011;DHT22;19370;48.562;9.196;2022-08-19T13:29:04;18.60;99.90
33011;DHT22;19370;48.562;9.196;2022-08-19T13:32:08;18.60;99.90
33011;DHT22;19370;48.562;9.196;2022-08-19T13:35:13;18.60;99.90
33011;DHT22;19370;48.562;9.196;2022-08-19T13:38:00;18.60;99.90
33011;DHT22;19370;48.562;9.196;2022-08-19T13:40:53;18.60;99.90
33011;DHT22;19370;48.562;9.196;2022-08-19T13:43:39;18.60;99.90
33011;DHT22;19370;48.562;9.196;2022-08-19T13:46:25;18.50;99.90
33011;DHT22;19370;48.562;9.196;2022-08-19T13:49:13;18.50;99.90
33011;DHT22;19370;48.562;9.196;2022-08-19T13:52:00;18.50;99.90
33011;DHT22;19370;48.562;9.196;2022-08-19T13:54:46;18.50;99.90
33011;DHT22;19370;48.562;9.196;2022-08-19T13:57:32;18.50;99.90
33011;DHT22;19370;48.562;9.196;2022-08-19T14:00:20;18.50;99.90
33011;DHT22;19370;48.562;9.196;2022-08-19T14:03:06;18.40;99.90
33011;DHT22;19370;48.562;9.196;2022-08-19T14:05:52;18.40;99.90
33011;DHT22;19370;48.562;9.196;2022-08-19T14:08:38;18.50;99.90
33011;DHT22;19370;48.562;9.196;2022-08-19T14:11:27;18.50;99.90
33011;DHT22;19370;48.562;9.196;2022-08-19T14:14:13;18.50;99.90
33011;DHT22;19370;48.562;9.196;2022-08-19T14:16:59;18.50;99.90
33011;DHT22;19370;48.562;9.196;2022-08-19T14:19:47;18.50;99.90
33011;DHT22;19370;48.562;9.196;2022-08-19T14:22:38;18.50;99.90
33011;DHT22;19370;48.562;9.196;2022-08-19T14:25:27;18.60;99.90
33011;DHT22;19370;48.562;9.196;2022-08-19T14:28:14;18.60;99.90
33011;DHT22;19370;48.562;9.196;2022-08-19T14:31:00;18.60;99.90
33011;DHT22;19370;48.562;9.196;2022-08-19T14:33:47;18.60;99.90
33011;DHT22;19370;48.562;9.196;2022-08-19T14:36:33;18.60;99.90
33011;DHT22;19370;48.562;9.196;2022-08-19T14:39:20;18.70;99.90
33011;DHT22;19370;48.562;9.196;2022-08-19T14:42:09;18.60;99.90
33011;DHT22;19370;48.562;9.196;2022-08-19T14:44:58;18.60;99.90
33011;DHT22;19370;48.562;9.196;2022-08-19T14:47:44;18.50;99.90
33011;DHT22;19370;48.562;9.196;2022-08-19T14:50:30;18.60;99.90
33011;DHT22;19370;48.562;9.196;2022-08-19T14:53:16;18.60;99.90
33011;DHT22;19370;48.562;9.196;2022-08-19T14:56:11;18.60;99.90
33011;DHT22;19370;48.562;9.196;2022-08-19T14:58:57;18.60;99.90
33011;DHT22;19370;48.562;9.196;2022-08-19T15:01:45;18.70;99.90
33011;DHT22;19370;48.562;9.196;2022-08-19T15:04:31;18.70;99.90
33011;DHT22;19370;48.562;9.196;2022-08-19T15:07:18;18.70;99.90
33011;DHT22;19370;48.562;9.196;2022-08-19T15:10:05;18.80;99.90
33011;DHT22;19370;48.562;9.196;2022-08-19T15:12:52;18.80;99.90
33011;DHT22;19370;48.562;9.196;2022-08-19T15:15:41;18.80;99.90
33011;DHT22;19370;48.562;9.196;2022-08-19T15:18:28;18.90;99.90
33011;DHT22;19370;48.562;9.196;2022-08-19T15:21:15;18.80;99.90
33011;DHT22;19370;48.562;9.196;2022-08-19T15:24:04;18.90;99.90
33011;DHT22;19370;48.562;9.196;2022-08-19T15:26:54;19.00;99.90
33011;DHT22;19370;48.562;9.196;2022-08-19T15:29:41;19.20;99.90
33011;DHT22;19370;48.562;9.196;2022-08-19T15:32:28;19.30;99.90
33011;DHT22;19370;48.562;9.196;2022-08-19T15:35:14;19.20;99.90
33011;DHT22;19370;48.562;9.196;2022-08-19T15:38:01;19.20;99.90
33011;DHT22;19370;48.562;9.196;2022-08-19T15:40:48;19.20;99.90
33011;DHT22;19370;48.562;9.196;2022-08-19T15:43:41;19.00;99.90
33011;DHT22;19370;48.562;9.196;2022-08-19T15:46:29;19.10;99.90
33011;DHT22;19370;48.562;9.196;2022-08-19T15:49:17;19.00;99.90
33011;DHT22;19370;48.562;9.196;2022-08-19T15:52:04;19.00;99.90
33011;DHT22;19370;48.562;9.196;2022-08-19T15:54:52;19.00;99.90
33011;DHT22;19370;48.562;9.196;2022-08-19T15:57:38;19.20;99.90
33011;DHT22;19370;48.562;9.196;2022-08-19T16:00:43;19.40;99.90
33011;DHT22;19370;48.562;9.196;2022-08-19T16:03:48;19.70;99.90
33011;DHT22;19370;48.562;9.196;2022-08-19T16:06:56;20.00;99.90
33011;DHT22;19370;48.562;9.196;2022-08-19T16:09:42;20.40;99.90
33011;DHT22;19370;48.562;9.196;2022-08-19T16:12:28;20.70;99.90
33011;DHT22;19370;48.562;9.196;2022-08-19T16:15:16;21.00;99.90
33011;DHT22;19370;48.562;9.196;2022-08-19T16:18:02;21.50;99.90
33011;DHT22;19370;48.562;9.196;2022-08-19T16:20:49;21.70;99.90
33011;DHT22;19370;48.562;9.196;2022-08-19T16:23:35;22.10;99.90
33011;DHT22;19370;48.562;9.196;2022-08-19T16:26:21;22.30;99.90
33011;DHT22;19370;48.562;9.196;2022-08-19T16:29:07;21.90;99.90
33011;DHT22;19370;48.562;9.196;2022-08-19T16:31:54;21.70;99.90
33011;DHT22;19370;48.562;9.196;2022-08-19T16:34:41;21.20;99.90
33011;DHT22;19370;48.562;9.196;2022-08-19T16:37:28;21.00;99.90
33011;DHT22;19370;48.562;9.196;2022-08-19T16:40:14;20.90;99.90
33011;DHT22;19370;48.562;9.196;2022-08-19T16:43:00;21.10;99.90
33011;DHT22;19370;48.562;9.196;2022-08-19T16:45:48;21.00;99.90
33011;DHT22;19370;48.562;9.196;2022-08-19T16:48:38;21.10;99.90
33011;DHT22;19370;48.562;9.196;2022-08-19T16:51:27;21.10;99.90
33011;DHT22;19370;48.562;9.196;2022-08-19T16:54:14;21.20;99.90
33011;DHT22;19370;48.562;9.196;2022-08-19T16:57:00;21.40;99.90
33011;DHT22;19370;48.562;9.196;2022-08-19T16:59:46;21.40;99.90
33011;DHT22;19370;48.562;9.196;2022-08-19T17:02:33;21.20;99.90
33011;DHT22;19370;48.562;9.196;2022-08-19T17:05:19;21.00;99.90
33011;DHT22;19370;48.562;9.196;2022-08-19T17:08:05;20.70;99.90
33011;DHT22;19370;48.562;9.196;2022-08-19T17:10:53;20.40;99.90
33011;DHT22;19370;48.562;9.196;2022-08-19T17:13:40;20.10;99.90
33011;DHT22;19370;48.562;9.196;2022-08-19T17:16:28;20.00;99.90
33011;DHT22;19370;48.562;9.196;2022-08-19T17:19:14;19.90;99.90
33011;DHT22;19370;48.562;9.196;2022-08-19T17:22:00;19.80;99.90
33011;DHT22;19370;48.562;9.196;2022-08-19T17:24:46;19.80;99.90
33011;DHT22;19370;48.562;9.196;2022-08-19T17:27:32;19.70;99.90
33011;DHT22;19370;48.562;9.196;2022-08-19T17:30:19;19.60;99.90
33011;DHT22;19370;48.562;9.196;2022-08-19T17:33:06;19.50;99.90
33011;DHT22;19370;48.562;9.196;2022-08-19T17:35:52;19.30;99.90
33011;DHT22;19370;48.562;9.196;2022-08-19T17:38:38;19.20;99.90
33011;DHT22;19370;48.562;9.196;2022-08-19T17:41:26;19.20;99.90
33011;DHT22;19370;48.562;9.196;2022-08-19T17:44:12;19.20;99.90
33011;DHT22;19370;48.562;9.196;2022-08-19T17:46:59;19.20;99.90
33011;DHT22;19370;48.562;9.196;2022-08-19T17:49:45;19.20;99.90